createdAt,value
2018-11-28T00:00:54.183Z,2.20
2018-11-28T00:01:54.447Z,2.00
2018-11-28T00:02:54.515Z,2.50
2018-11-28T00:03:54.098Z,2.20
2018-11-28T00:04:54.072Z,1.90
2018-11-28T00:05:54.027Z,1.80
2018-11-28T00:06:54.012Z,2.30
2018-11-28T00:07:54.043Z,2.30
2018-11-28T00:08:53.964Z,2.30
2018-11-28T00:09:53.938Z,2.10
2018-11-28T00:10:53.891Z,1.80
2018-11-28T00:11:53.872Z,2.60
2018-11-28T00:12:53.914Z,1.90
2018-11-28T00:13:54.102Z,2.40
2018-11-28T00:14:53.805Z,2.00
2018-11-28T00:15:53.856Z,2.50
2018-11-28T00:16:53.733Z,2.20
2018-11-28T00:17:53.787Z,2.30
2018-11-28T00:18:53.810Z,2.10
2018-11-28T00:19:53.693Z,2.10
2018-11-28T00:20:53.655Z,2.70
2018-11-28T00:21:53.602Z,2.40
2018-11-28T00:22:53.723Z,2.40
2018-11-28T00:23:53.691Z,2.40
2018-11-28T00:24:53.575Z,2.30
2018-11-28T00:25:58.713Z,2.60
2018-11-28T00:26:53.477Z,1.90
2018-11-28T00:27:53.487Z,2.40
2018-11-28T00:28:53.431Z,2.10
2018-11-28T00:29:53.493Z,2.00
2018-11-28T00:30:53.374Z,2.00
2018-11-28T00:31:53.346Z,2.20
2018-11-28T00:32:53.324Z,2.30
2018-11-28T00:33:53.542Z,2.40
2018-11-28T00:34:53.266Z,2.50
2018-11-28T00:35:53.348Z,2.00
2018-11-28T00:36:53.209Z,2.40
2018-11-28T00:37:53.268Z,1.80
2018-11-28T00:38:53.177Z,2.10
2018-11-28T00:39:53.139Z,2.50
2018-11-28T00:40:53.217Z,2.10
2018-11-28T00:41:53.070Z,2.30
2018-11-28T00:42:53.062Z,2.20
2018-11-28T00:43:53.047Z,2.40
2018-11-28T00:44:53.000Z,2.30
2018-11-28T00:45:53.281Z,2.30
2018-11-28T00:46:52.965Z,2.10
2018-11-28T00:47:53.002Z,2.50
2018-11-28T00:48:52.900Z,2.40
2018-11-28T00:49:52.884Z,2.30
2018-11-28T00:50:53.239Z,2.10
2018-11-28T00:51:52.814Z,2.30
2018-11-28T00:52:52.781Z,1.90
2018-11-28T00:53:52.813Z,1.80
2018-11-28T00:54:52.736Z,2.50
2018-11-28T00:55:52.744Z,2.00
2018-11-28T00:56:52.791Z,2.60
2018-11-28T00:57:52.766Z,2.40
2018-11-28T00:58:52.650Z,2.40
2018-11-28T00:59:52.690Z,2.50
2018-11-28T01:00:52.592Z,2.00
2018-11-28T01:01:52.678Z,2.00
2018-11-28T01:02:52.644Z,2.00
2018-11-28T01:03:52.545Z,2.60
2018-11-28T01:04:52.482Z,2.70
2018-11-28T01:05:52.462Z,2.60
2018-11-28T01:06:52.404Z,2.20
2018-11-28T01:07:52.558Z,2.30
2018-11-28T01:08:52.382Z,2.60
2018-11-28T01:09:52.372Z,2.90
2018-11-28T01:10:52.331Z,2.80
2018-11-28T01:11:52.575Z,2.50
2018-11-28T01:12:52.280Z,2.80
2018-11-28T01:13:52.335Z,2.50
2018-11-28T01:14:52.247Z,2.90
2018-11-28T01:15:52.186Z,2.60
2018-11-28T01:16:52.688Z,2.30
2018-11-28T01:17:52.124Z,2.30
2018-11-28T01:18:52.221Z,2.30
2018-11-28T01:19:52.184Z,2.10
2018-11-28T01:20:52.037Z,2.10
2018-11-28T01:21:52.106Z,2.60
2018-11-28T01:22:52.456Z,2.50
2018-11-28T01:23:52.221Z,3.00
2018-11-28T01:24:51.927Z,3.60
2018-11-28T01:25:52.020Z,2.30
2018-11-28T01:26:51.983Z,2.90
2018-11-28T01:27:51.938Z,2.70
2018-11-28T01:28:52.032Z,2.80
2018-11-28T01:29:52.235Z,3.10
2018-11-28T01:30:51.796Z,2.30
2018-11-28T01:31:51.759Z,2.20
2018-11-28T01:32:51.764Z,2.30
2018-11-28T01:33:51.702Z,3.80
2018-11-28T01:34:51.721Z,2.70
2018-11-28T01:35:51.704Z,2.70
2018-11-28T01:36:51.733Z,3.00
2018-11-28T01:37:51.605Z,2.30
2018-11-28T01:38:52.057Z,2.10
2018-11-28T01:39:51.610Z,2.20
2018-11-28T01:40:51.543Z,2.10
2018-11-28T01:41:51.555Z,2.30
2018-11-28T01:42:52.039Z,2.90
2018-11-28T01:43:51.527Z,2.70
2018-11-28T01:44:51.503Z,2.50
2018-11-28T01:45:51.553Z,2.20
2018-11-28T01:46:51.373Z,2.80
2018-11-28T01:47:51.332Z,2.80
2018-11-28T01:48:51.403Z,2.60
2018-11-28T01:49:51.349Z,2.60
2018-11-28T01:50:51.463Z,2.90
2018-11-28T01:51:51.794Z,2.30
2018-11-28T01:52:51.353Z,2.20
2018-11-28T01:53:51.317Z,2.20
2018-11-28T01:54:51.407Z,2.10
2018-11-28T01:55:51.508Z,2.30
2018-11-28T01:56:51.432Z,2.50
2018-11-28T01:57:51.240Z,2.20
2018-11-28T01:58:51.255Z,2.00
2018-11-28T01:59:51.061Z,2.10
2018-11-28T02:00:51.637Z,2.30
2018-11-28T02:01:51.602Z,2.00
2018-11-28T02:02:51.235Z,2.00
2018-11-28T02:03:50.978Z,2.20
2018-11-28T02:04:50.890Z,2.10
2018-11-28T02:05:50.969Z,2.10
2018-11-28T02:06:51.268Z,2.00
2018-11-28T02:07:51.019Z,1.80
2018-11-28T02:08:51.395Z,2.00
2018-11-28T02:09:50.898Z,2.40
2018-11-28T02:10:50.888Z,1.90
2018-11-28T02:11:50.770Z,1.80
2018-11-28T02:12:50.769Z,1.70
2018-11-28T02:13:51.259Z,1.80
2018-11-28T02:14:50.722Z,2.30
2018-11-28T02:15:50.834Z,2.00
2018-11-28T02:16:50.855Z,2.30
2018-11-28T02:17:50.542Z,2.30
2018-11-28T02:18:50.560Z,2.10
2018-11-28T02:19:51.461Z,2.30
2018-11-28T02:20:50.660Z,1.90
2018-11-28T02:21:50.418Z,2.00
2018-11-28T02:22:50.479Z,2.00
2018-11-28T02:23:50.645Z,2.20
2018-11-28T02:24:50.506Z,2.10
2018-11-28T02:25:50.397Z,2.00
2018-11-28T02:26:50.881Z,1.90
2018-11-28T02:27:50.620Z,2.20
2018-11-28T02:28:50.319Z,2.10
2018-11-28T02:29:50.426Z,2.40
2018-11-28T02:30:50.164Z,1.90
2018-11-28T02:31:50.211Z,2.00
2018-11-28T02:32:50.208Z,1.80
2018-11-28T02:33:50.358Z,2.00
2018-11-28T02:34:50.975Z,1.90
2018-11-28T02:35:50.366Z,2.00
2018-11-28T02:36:50.072Z,1.80
2018-11-28T02:37:50.070Z,2.40
2018-11-28T02:38:50.478Z,3.30
2018-11-28T02:39:49.988Z,3.10
2018-11-28T02:40:50.681Z,2.90
2018-11-28T02:41:50.842Z,3.30
2018-11-28T02:42:50.313Z,2.10
2018-11-28T02:43:50.516Z,2.50
2018-11-28T02:44:50.107Z,2.10
2018-11-28T02:45:49.962Z,2.00
2018-11-28T02:46:50.625Z,2.40
2018-11-28T02:47:49.750Z,2.60
2018-11-28T02:48:49.771Z,2.50
2018-11-28T02:49:49.761Z,2.30
2018-11-28T02:50:49.651Z,1.90
2018-11-28T02:51:49.923Z,2.70
2018-11-28T02:52:49.628Z,2.10
2018-11-28T02:53:49.575Z,2.20
2018-11-28T02:54:49.685Z,2.40
2018-11-28T02:55:49.562Z,1.90
2018-11-28T02:56:49.629Z,2.30
2018-11-28T02:57:49.562Z,2.40
2018-11-28T02:58:49.505Z,2.20
2018-11-28T02:59:49.698Z,1.90
2018-11-28T03:00:49.834Z,2.10
2018-11-28T03:01:49.451Z,2.00
2018-11-28T03:02:49.991Z,1.60
2018-11-28T03:03:49.445Z,2.00
2018-11-28T03:04:49.907Z,2.20
2018-11-28T03:05:49.345Z,2.40
2018-11-28T03:06:49.811Z,2.00
2018-11-28T03:07:50.005Z,2.30
2018-11-28T03:08:49.513Z,2.30
2018-11-28T03:09:49.271Z,2.10
2018-11-28T03:10:49.446Z,1.80
2018-11-28T03:11:49.500Z,1.80
2018-11-28T03:12:49.497Z,2.30
2018-11-28T03:13:50.027Z,2.40
2018-11-28T03:14:49.669Z,2.30
2018-11-28T03:15:49.035Z,2.00
2018-11-28T03:16:48.999Z,2.20
2018-11-28T03:17:48.932Z,2.00
2018-11-28T03:18:48.962Z,2.20
2018-11-28T03:19:49.188Z,1.90
2018-11-28T03:20:49.381Z,1.80
2018-11-28T03:21:48.898Z,1.90
2018-11-28T03:22:49.486Z,2.60
2018-11-28T03:23:48.798Z,1.90
2018-11-28T03:24:49.350Z,2.60
2018-11-28T03:25:48.979Z,2.30
2018-11-28T03:26:48.985Z,2.30
2018-11-28T03:27:48.814Z,2.50
2018-11-28T03:28:49.103Z,2.10
2018-11-28T03:29:48.897Z,2.20
2018-11-28T03:30:48.670Z,2.10
2018-11-28T03:31:48.997Z,2.50
2018-11-28T03:32:48.562Z,2.80
2018-11-28T03:33:48.504Z,2.00
2018-11-28T03:34:48.487Z,2.20
2018-11-28T03:35:48.681Z,2.20
2018-11-28T03:36:48.595Z,2.50
2018-11-28T03:37:48.525Z,1.80
2018-11-28T03:38:48.501Z,2.00
2018-11-28T03:39:48.525Z,2.40
2018-11-28T03:40:48.474Z,1.80
2018-11-28T03:41:48.576Z,1.90
2018-11-28T03:42:48.265Z,2.00
2018-11-28T03:43:48.770Z,2.40
2018-11-28T03:44:48.206Z,3.00
2018-11-28T03:45:48.262Z,2.40
2018-11-28T03:46:48.152Z,1.80
2018-11-28T03:47:48.233Z,1.90
2018-11-28T03:48:48.113Z,2.00
2018-11-28T03:49:48.074Z,2.10
2018-11-28T03:50:48.048Z,2.50
2018-11-28T03:51:48.064Z,2.40
2018-11-28T03:52:48.106Z,2.00
2018-11-28T03:53:47.988Z,2.20
2018-11-28T03:54:47.924Z,2.00
2018-11-28T03:55:47.899Z,2.70
2018-11-28T03:56:47.905Z,2.90
2018-11-28T03:57:47.962Z,2.00
2018-11-28T03:58:47.827Z,1.70
2018-11-28T03:59:47.815Z,2.40
2018-11-28T04:00:47.768Z,2.00
2018-11-28T04:01:47.760Z,2.10
2018-11-28T04:02:47.904Z,2.20
2018-11-28T04:03:47.683Z,2.70
2018-11-28T04:04:47.660Z,1.60
2018-11-28T04:05:47.639Z,1.90
2018-11-28T04:06:47.604Z,2.00
2018-11-28T04:07:47.622Z,2.20
2018-11-28T04:08:47.628Z,2.30
2018-11-28T04:09:47.541Z,2.30
2018-11-28T04:10:47.516Z,2.20
2018-11-28T04:11:47.518Z,2.30
2018-11-28T04:12:47.733Z,2.30
2018-11-28T04:13:47.464Z,2.30
2018-11-28T04:14:47.383Z,2.30
2018-11-28T04:15:47.371Z,2.50
2018-11-28T04:16:47.417Z,2.50
2018-11-28T04:17:47.316Z,2.30
2018-11-28T04:18:47.297Z,2.60
2018-11-28T04:19:47.560Z,2.00
2018-11-28T04:20:47.226Z,2.70
2018-11-28T04:21:47.212Z,2.80
2018-11-28T04:22:47.185Z,2.40
2018-11-28T04:23:47.156Z,2.60
2018-11-28T04:24:47.150Z,2.20
2018-11-28T04:25:47.250Z,2.20
2018-11-28T04:26:47.134Z,2.50
2018-11-28T04:27:47.053Z,2.20
2018-11-28T04:28:47.034Z,2.20
2018-11-28T04:29:46.986Z,2.30
2018-11-28T04:30:47.057Z,2.50
2018-11-28T04:31:46.932Z,2.30
2018-11-28T04:32:46.925Z,2.40
2018-11-28T04:33:46.904Z,2.00
2018-11-28T04:34:46.858Z,2.10
2018-11-28T04:35:46.925Z,2.80
2018-11-28T04:36:46.821Z,2.60
2018-11-28T04:37:46.843Z,2.20
2018-11-28T04:38:46.783Z,2.50
2018-11-28T04:39:46.739Z,2.30
2018-11-28T04:40:46.746Z,2.60
2018-11-28T04:41:46.693Z,2.50
2018-11-28T04:42:46.649Z,2.40
2018-11-28T04:43:46.619Z,2.80
2018-11-28T04:44:46.591Z,2.60
2018-11-28T04:45:46.722Z,3.10
2018-11-28T04:46:46.549Z,2.40
2018-11-28T04:47:46.557Z,3.10
2018-11-28T04:48:46.485Z,3.10
2018-11-28T04:49:46.460Z,2.70
2018-11-28T04:50:46.447Z,2.90
2018-11-28T04:52:46.448Z,2.60
2018-11-28T04:53:46.356Z,2.40
2018-11-28T04:54:46.337Z,2.80
2018-11-28T04:55:46.302Z,2.80
2018-11-28T04:56:46.378Z,2.50
2018-11-28T04:57:46.243Z,2.80
2018-11-28T04:58:46.232Z,2.30
2018-11-28T04:59:46.246Z,2.80
2018-11-28T05:00:46.172Z,2.50
2018-11-28T05:01:46.247Z,2.60
2018-11-28T05:02:46.106Z,3.20
2018-11-28T05:03:46.082Z,2.20
2018-11-28T05:04:46.057Z,2.40
2018-11-28T05:05:46.034Z,2.50
2018-11-28T05:06:46.054Z,3.10
2018-11-28T05:07:45.973Z,2.70
2018-11-28T05:08:45.946Z,2.40
2018-11-28T05:09:45.907Z,2.90
2018-11-28T05:10:45.902Z,2.80
2018-11-28T05:11:45.918Z,2.90
2018-11-28T05:12:45.850Z,3.10
2018-11-28T05:13:45.863Z,2.80
2018-11-28T05:14:45.782Z,2.60
2018-11-28T05:15:45.764Z,2.60
2018-11-28T05:16:45.793Z,2.60
2018-11-28T05:17:45.711Z,2.40
2018-11-28T05:18:45.666Z,2.50
2018-11-28T05:19:45.662Z,2.80
2018-11-28T05:20:45.642Z,2.60
2018-11-28T05:21:45.698Z,2.80
2018-11-28T05:22:45.562Z,2.60
2018-11-28T05:23:45.555Z,3.00
2018-11-28T05:24:45.549Z,2.80
2018-11-28T05:25:45.497Z,2.30
2018-11-28T05:26:45.453Z,2.40
2018-11-28T05:27:45.494Z,2.20
2018-11-28T05:28:45.418Z,2.70
2018-11-28T05:29:45.374Z,2.60
2018-11-28T05:30:45.366Z,2.90
2018-11-28T05:31:45.339Z,2.50
2018-11-28T05:32:45.308Z,2.70
2018-11-28T05:33:45.313Z,2.70
2018-11-28T05:34:45.251Z,2.90
2018-11-28T05:35:45.220Z,3.00
2018-11-28T05:36:45.192Z,3.00
2018-11-28T05:37:45.245Z,2.60
2018-11-28T05:38:45.234Z,2.80
2018-11-28T05:39:45.122Z,2.80
2018-11-28T05:40:46.929Z,3.10
2018-11-28T05:41:45.072Z,2.70
2018-11-28T05:42:45.025Z,2.80
2018-11-28T05:43:45.103Z,2.70
2018-11-28T05:44:44.976Z,3.50
2018-11-28T05:45:44.953Z,2.70
2018-11-28T05:46:44.940Z,3.00
2018-11-28T05:47:44.952Z,2.50
2018-11-28T05:48:44.918Z,2.60
2018-11-28T05:49:44.853Z,2.90
2018-11-28T05:50:44.842Z,2.60
2018-11-28T05:51:44.798Z,2.60
2018-11-28T05:52:44.773Z,2.80
2018-11-28T05:53:44.790Z,3.00
2018-11-28T05:54:44.716Z,2.70
2018-11-28T05:55:44.702Z,2.60
2018-11-28T05:56:44.721Z,2.50
2018-11-28T05:57:44.647Z,3.10
2018-11-28T05:58:44.652Z,3.00
2018-11-28T05:59:44.659Z,2.50
2018-11-28T06:00:44.550Z,2.70
2018-11-28T06:01:44.527Z,3.00
2018-11-28T06:02:44.489Z,2.90
2018-11-28T06:03:44.462Z,2.90
2018-11-28T06:04:44.446Z,3.00
2018-11-28T06:05:44.462Z,2.50
2018-11-28T06:06:44.397Z,2.80
2018-11-28T06:07:44.357Z,2.60
2018-11-28T06:08:44.339Z,2.90
2018-11-28T06:09:44.325Z,2.40
2018-11-28T06:10:44.307Z,3.20
2018-11-28T06:11:44.408Z,2.70
2018-11-28T06:12:44.230Z,2.70
2018-11-28T06:13:44.215Z,3.50
2018-11-28T06:14:44.307Z,2.10
2018-11-28T06:15:44.157Z,2.90
2018-11-28T06:16:44.221Z,2.90
2018-11-28T06:17:44.105Z,2.60
2018-11-28T06:18:44.098Z,2.80
2018-11-28T06:19:44.059Z,3.10
2018-11-28T06:20:44.022Z,2.80
2018-11-28T06:21:44.057Z,2.70
2018-11-28T06:22:43.974Z,3.00
2018-11-28T06:23:43.946Z,3.30
2018-11-28T06:24:43.938Z,2.20
2018-11-28T06:25:43.877Z,3.00
2018-11-28T06:26:43.920Z,2.50
2018-11-28T06:27:43.828Z,2.80
2018-11-28T06:28:45.623Z,2.90
2018-11-28T06:29:43.772Z,2.70
2018-11-28T06:30:43.763Z,3.10
2018-11-28T06:31:43.791Z,2.60
2018-11-28T06:32:43.689Z,2.40
2018-11-28T06:33:43.674Z,2.80
2018-11-28T06:34:43.639Z,3.40
2018-11-28T06:35:43.661Z,3.00
2018-11-28T06:36:43.635Z,2.60
2018-11-28T06:37:43.626Z,3.00
2018-11-28T06:38:43.529Z,2.70
2018-11-28T06:39:43.517Z,2.20
2018-11-28T06:40:43.482Z,2.60
2018-11-28T06:41:43.460Z,2.60
2018-11-28T06:42:43.454Z,2.40
2018-11-28T06:43:43.483Z,2.70
2018-11-28T06:44:43.417Z,2.30
2018-11-28T06:45:43.373Z,2.30
2018-11-28T06:46:43.371Z,3.00
2018-11-28T06:47:43.338Z,2.60
2018-11-28T06:48:43.264Z,3.00
2018-11-28T06:49:43.357Z,3.20
2018-11-28T06:50:43.222Z,2.70
2018-11-28T06:51:43.203Z,2.40
2018-11-28T06:52:43.173Z,2.90
2018-11-28T06:53:43.147Z,2.70
2018-11-28T06:54:43.154Z,3.40
2018-11-28T06:55:43.096Z,3.40
2018-11-28T06:56:43.054Z,2.70
2018-11-28T06:57:43.031Z,2.60
2018-11-28T06:58:43.003Z,3.10
2018-11-28T06:59:43.032Z,3.60
2018-11-28T07:00:42.967Z,3.00
2018-11-28T07:01:42.932Z,2.60
2018-11-28T07:02:42.909Z,2.70
2018-11-28T07:03:42.883Z,3.50
2018-11-28T07:04:42.942Z,3.20
2018-11-28T07:05:42.825Z,3.80
2018-11-28T07:06:42.819Z,3.10
2018-11-28T07:07:42.758Z,4.10
2018-11-28T07:08:42.750Z,2.90
2018-11-28T07:09:42.791Z,3.10
2018-11-28T07:10:42.750Z,3.90
2018-11-28T07:11:42.663Z,2.90
2018-11-28T07:12:42.650Z,3.60
2018-11-28T07:13:42.630Z,2.70
2018-11-28T07:14:42.601Z,3.60
2018-11-28T07:15:42.656Z,3.00
2018-11-28T07:16:42.542Z,3.70
2018-11-28T07:17:42.515Z,3.50
2018-11-28T07:18:42.483Z,3.30
2018-11-28T07:19:42.466Z,2.90
2018-11-28T07:20:42.426Z,2.70
2018-11-28T07:21:42.462Z,3.10
2018-11-28T07:22:42.386Z,2.90
2018-11-28T07:23:42.348Z,3.50
2018-11-28T07:24:42.351Z,3.40
2018-11-28T07:25:42.304Z,3.30
2018-11-28T07:26:42.262Z,3.60
2018-11-28T07:27:45.192Z,3.70
2018-11-28T07:28:42.229Z,2.80
2018-11-28T07:29:42.170Z,2.90
2018-11-28T07:30:42.160Z,2.70
2018-11-28T07:31:42.128Z,3.20
2018-11-28T07:32:42.160Z,3.70
2018-11-28T07:33:42.081Z,2.90
2018-11-28T07:34:42.053Z,2.80
2018-11-28T07:35:42.047Z,3.10
2018-11-28T07:36:41.991Z,2.90
2018-11-28T07:37:42.023Z,3.30
2018-11-28T07:38:41.957Z,3.40
2018-11-28T07:39:41.912Z,3.30
2018-11-28T07:40:41.882Z,2.60
2018-11-28T07:41:41.889Z,2.70
2018-11-28T07:42:41.842Z,3.10
2018-11-28T07:43:41.860Z,3.30
2018-11-28T07:44:41.786Z,2.80
2018-11-28T07:45:41.772Z,2.60
2018-11-28T07:46:41.731Z,3.00
2018-11-28T07:47:41.730Z,2.80
2018-11-28T07:48:41.759Z,2.90
2018-11-28T07:49:41.665Z,3.00
2018-11-28T07:50:41.645Z,3.20
2018-11-28T07:51:41.604Z,2.90
2018-11-28T07:52:41.582Z,2.90
2018-11-28T07:53:41.654Z,2.70
2018-11-28T07:54:41.554Z,2.80
2018-11-28T07:55:41.512Z,3.10
2018-11-28T07:56:41.494Z,3.20
2018-11-28T07:57:41.445Z,2.80
2018-11-28T07:58:41.436Z,2.70
2018-11-28T07:59:41.504Z,2.70
2018-11-28T08:00:41.395Z,2.50
2018-11-28T08:01:41.346Z,2.80
2018-11-28T08:02:41.312Z,2.70
2018-11-28T08:03:41.276Z,3.00
2018-11-28T08:04:41.267Z,2.40
2018-11-28T08:05:41.325Z,3.00
2018-11-28T08:06:41.197Z,2.80
2018-11-28T08:07:41.189Z,2.80
2018-11-28T08:08:41.158Z,2.40
2018-11-28T08:09:41.113Z,2.80
2018-11-28T08:10:41.198Z,2.30
2018-11-28T08:11:41.109Z,2.50
2018-11-28T08:12:41.089Z,2.30
2018-11-28T08:13:41.027Z,2.60
2018-11-28T08:14:40.989Z,2.30
2018-11-28T08:15:41.117Z,2.40
2018-11-28T08:16:42.820Z,2.90
2018-11-28T08:17:41.064Z,2.90
2018-11-28T08:18:42.151Z,3.70
2018-11-28T08:19:41.438Z,2.60
2018-11-28T08:20:40.841Z,2.50
2018-11-28T08:21:40.997Z,3.00
2018-11-28T08:22:40.940Z,2.50
2018-11-28T08:23:40.843Z,2.70
2018-11-28T08:24:40.889Z,2.60
2018-11-28T08:25:40.814Z,2.70
2018-11-28T08:26:40.805Z,2.60
2018-11-28T08:27:41.008Z,2.70
2018-11-28T08:28:40.752Z,2.70
2018-11-28T08:29:40.784Z,2.80
2018-11-28T08:30:40.742Z,2.60
2018-11-28T08:31:40.818Z,2.60
2018-11-28T08:32:40.559Z,2.80
2018-11-28T08:33:40.539Z,2.70
2018-11-28T08:34:40.596Z,2.80
2018-11-28T08:35:40.597Z,2.80
2018-11-28T08:36:40.464Z,3.10
2018-11-28T08:37:40.598Z,2.40
2018-11-28T08:38:40.437Z,2.90
2018-11-28T08:39:40.406Z,3.10
2018-11-28T08:40:40.394Z,2.60
2018-11-28T08:41:40.400Z,2.80
2018-11-28T08:42:40.306Z,2.70
2018-11-28T08:43:40.449Z,2.80
2018-11-28T08:44:40.222Z,3.10
2018-11-28T08:45:40.163Z,3.00
2018-11-28T08:46:40.149Z,2.70
2018-11-28T08:47:40.114Z,2.60
2018-11-28T08:48:40.133Z,2.70
2018-11-28T08:49:40.069Z,3.00
2018-11-28T08:50:40.024Z,2.80
2018-11-28T08:51:40.012Z,3.40
2018-11-28T08:52:39.974Z,3.30
2018-11-28T08:53:39.947Z,3.00
2018-11-28T08:54:40.042Z,2.70
2018-11-28T08:55:39.903Z,2.60
2018-11-28T08:56:39.867Z,3.10
2018-11-28T08:57:39.855Z,2.70
2018-11-28T08:58:39.823Z,2.60
2018-11-28T08:59:39.858Z,3.10
2018-11-28T09:00:39.766Z,2.80
2018-11-28T09:01:39.744Z,2.60
2018-11-28T09:02:39.714Z,2.90
2018-11-28T09:03:39.677Z,2.90
2018-11-28T09:04:39.781Z,2.70
2018-11-28T09:05:39.631Z,3.20
2018-11-28T09:06:39.605Z,3.20
2018-11-28T09:07:39.576Z,2.70
2018-11-28T09:08:39.565Z,3.10
2018-11-28T09:09:39.592Z,3.10
2018-11-28T09:10:39.522Z,2.70
2018-11-28T09:11:39.474Z,3.00
2018-11-28T09:12:39.467Z,2.80
2018-11-28T09:13:39.428Z,2.70
2018-11-28T09:14:39.423Z,2.70
2018-11-28T09:15:39.495Z,3.00
2018-11-28T09:16:39.331Z,2.40
2018-11-28T09:17:39.351Z,2.80
2018-11-28T09:18:39.289Z,3.20
2018-11-28T09:19:39.259Z,2.90
2018-11-28T09:20:39.241Z,3.00
2018-11-28T09:21:39.302Z,3.40
2018-11-28T09:22:39.182Z,2.90
2018-11-28T09:23:39.179Z,2.40
2018-11-28T09:24:39.131Z,2.70
2018-11-28T09:25:39.093Z,3.00
2018-11-28T09:26:39.090Z,2.70
2018-11-28T09:27:39.170Z,3.50
2018-11-28T09:28:39.018Z,3.30
2018-11-28T09:29:39.002Z,2.80
2018-11-28T09:30:38.990Z,3.10
2018-11-28T09:31:38.956Z,3.20
2018-11-28T09:32:39.031Z,2.60
2018-11-28T09:33:38.891Z,2.60
2018-11-28T09:34:38.855Z,3.20
2018-11-28T09:35:38.835Z,3.00
2018-11-28T09:36:38.823Z,2.60
2018-11-28T09:37:38.900Z,3.10
2018-11-28T09:38:38.752Z,3.50
2018-11-28T09:39:38.729Z,2.90
2018-11-28T09:40:38.728Z,3.10
2018-11-28T09:41:38.666Z,2.80
2018-11-28T09:42:38.752Z,3.00
2018-11-28T09:43:38.627Z,2.70
2018-11-28T09:44:38.610Z,2.60
2018-11-28T09:45:38.581Z,2.80
2018-11-28T09:46:38.561Z,3.40
2018-11-28T09:47:38.622Z,2.60
2018-11-28T09:48:38.498Z,3.20
2018-11-28T09:49:38.475Z,2.90
2018-11-28T09:50:38.440Z,3.20
2018-11-28T09:51:38.415Z,3.00
2018-11-28T09:52:38.403Z,2.60
2018-11-28T09:53:38.458Z,3.20
2018-11-28T09:54:38.347Z,3.10
2018-11-28T09:55:38.310Z,2.80
2018-11-28T09:56:38.293Z,2.70
2018-11-28T09:57:38.249Z,2.60
2018-11-28T09:58:38.232Z,3.10
2018-11-28T09:59:38.314Z,3.60
2018-11-28T10:00:38.179Z,2.90
2018-11-28T10:01:38.172Z,3.30
2018-11-28T10:02:38.120Z,2.80
2018-11-28T10:03:38.084Z,3.00
2018-11-28T10:04:38.127Z,3.20
2018-11-28T10:05:38.167Z,2.70
2018-11-28T10:06:38.020Z,3.70
2018-11-28T10:07:37.991Z,3.20
2018-11-28T10:08:37.977Z,2.90
2018-11-28T10:09:37.929Z,2.90
2018-11-28T10:10:38.002Z,3.00
2018-11-28T10:11:37.883Z,3.50
2018-11-28T10:12:37.859Z,3.10
2018-11-28T10:13:37.848Z,3.40
2018-11-28T10:14:37.803Z,3.20
2018-11-28T10:15:37.863Z,3.40
2018-11-28T10:16:37.735Z,3.00
2018-11-28T10:17:37.746Z,3.50
2018-11-28T10:18:37.690Z,2.90
2018-11-28T10:19:37.663Z,3.40
2018-11-28T10:20:37.771Z,3.40
2018-11-28T10:21:37.614Z,3.00
2018-11-28T10:22:37.580Z,3.00
2018-11-28T10:23:37.548Z,3.00
2018-11-28T10:24:37.543Z,3.20
2018-11-28T10:25:37.606Z,3.30
2018-11-28T10:26:37.496Z,3.30
2018-11-28T10:27:37.457Z,3.20
2018-11-28T10:28:37.437Z,2.60
2018-11-28T10:29:37.398Z,3.10
2018-11-28T10:30:37.393Z,3.20
2018-11-28T10:31:37.473Z,3.20
2018-11-28T10:32:37.325Z,3.20
2018-11-28T10:33:37.304Z,3.60
2018-11-28T10:34:37.297Z,3.40
2018-11-28T10:35:37.255Z,2.80
2018-11-28T10:36:37.259Z,3.10
2018-11-28T10:37:37.259Z,3.50
2018-11-28T10:38:37.169Z,3.00
2018-11-28T10:39:37.127Z,3.90
2018-11-28T10:40:37.119Z,2.90
2018-11-28T10:41:37.089Z,2.80
2018-11-28T10:42:37.216Z,3.00
2018-11-28T10:43:37.028Z,2.90
2018-11-28T10:44:37.020Z,2.90
2018-11-28T10:45:36.984Z,3.30
2018-11-28T10:46:36.959Z,2.90
2018-11-28T10:47:36.972Z,3.20
2018-11-28T10:48:36.889Z,3.60
2018-11-28T10:49:36.878Z,2.90
2018-11-28T10:50:36.833Z,3.10
2018-11-28T10:51:36.811Z,2.80
2018-11-28T10:52:36.883Z,3.20
2018-11-28T10:53:36.779Z,2.30
2018-11-28T10:54:36.735Z,3.00
2018-11-28T10:55:36.709Z,3.40
2018-11-28T10:56:36.710Z,3.50
2018-11-28T10:57:36.748Z,3.30
2018-11-28T10:58:36.615Z,3.10
2018-11-28T10:59:36.622Z,3.00
2018-11-28T11:00:36.575Z,3.20
2018-11-28T11:01:36.546Z,2.90
2018-11-28T11:02:36.608Z,2.20
2018-11-28T11:03:36.495Z,3.30
2018-11-28T11:04:36.465Z,3.10
2018-11-28T11:05:36.448Z,3.40
2018-11-28T11:06:36.416Z,2.80
2018-11-28T11:07:36.370Z,3.20
2018-11-28T11:08:36.452Z,2.90
2018-11-28T11:09:36.321Z,3.00
2018-11-28T11:10:36.295Z,3.20
2018-11-28T11:11:36.280Z,3.20
2018-11-28T11:12:36.255Z,3.40
2018-11-28T11:13:36.263Z,3.20
2018-11-28T11:14:36.297Z,3.00
2018-11-28T11:15:36.184Z,3.20
2018-11-28T11:16:36.159Z,3.40
2018-11-28T11:17:36.116Z,3.20
2018-11-28T11:18:36.157Z,3.60
2018-11-28T11:19:36.169Z,2.90
2018-11-28T11:20:36.025Z,3.00
2018-11-28T11:21:35.993Z,3.30
2018-11-28T11:22:36.058Z,3.60
2018-11-28T11:23:35.954Z,3.10
2018-11-28T11:24:36.068Z,3.00
2018-11-28T11:25:35.929Z,3.30
2018-11-28T11:26:35.861Z,3.30
2018-11-28T11:27:35.858Z,2.80
2018-11-28T11:28:35.815Z,3.60
2018-11-28T11:29:35.844Z,3.20
2018-11-28T11:30:35.756Z,3.40
2018-11-28T11:31:35.762Z,3.00
2018-11-28T11:32:35.696Z,3.10
2018-11-28T11:33:35.692Z,3.20
2018-11-28T11:34:35.772Z,3.20
2018-11-28T11:35:35.656Z,3.50
2018-11-28T11:36:35.675Z,3.50
2018-11-28T11:37:35.590Z,3.30
2018-11-28T11:38:35.551Z,3.00
2018-11-28T11:39:35.631Z,3.30
2018-11-28T11:40:35.503Z,3.10
2018-11-28T11:41:35.491Z,2.40
2018-11-28T11:42:35.438Z,3.30
2018-11-28T11:43:35.414Z,3.30
2018-11-28T11:44:35.387Z,2.90
2018-11-28T11:45:35.464Z,3.60
2018-11-28T11:46:35.347Z,3.50
2018-11-28T11:47:35.314Z,4.00
2018-11-28T11:48:35.282Z,3.40
2018-11-28T11:49:35.264Z,3.40
2018-11-28T11:50:35.267Z,3.20
2018-11-28T11:51:35.205Z,3.00
2018-11-28T11:52:35.172Z,2.70
2018-11-28T11:53:35.150Z,3.20
2018-11-28T11:54:35.129Z,3.50
2018-11-28T11:55:35.221Z,3.20
2018-11-28T11:56:35.092Z,2.90
2018-11-28T11:57:35.161Z,3.30
2018-11-28T11:58:35.023Z,3.30
2018-11-28T11:59:34.980Z,3.20
2018-11-28T12:00:35.032Z,2.60
2018-11-28T12:01:34.915Z,3.00
2018-11-28T12:02:34.911Z,3.30
2018-11-28T12:03:34.849Z,3.00
2018-11-28T12:04:36.589Z,3.40
2018-11-28T12:05:34.980Z,2.80
2018-11-28T12:06:34.793Z,3.60
2018-11-28T12:07:34.781Z,3.20
2018-11-28T12:08:34.771Z,3.00
2018-11-28T12:09:34.726Z,3.10
2018-11-28T12:12:34.855Z,3.50
2018-11-28T12:13:34.607Z,3.50
2018-11-28T12:14:34.564Z,3.60
2018-11-28T12:15:35.711Z,3.20
2018-11-28T12:16:34.711Z,2.50
2018-11-28T12:17:34.561Z,3.40
2018-11-28T12:18:34.766Z,3.40
2018-11-28T12:19:34.457Z,3.50
2018-11-28T12:20:34.447Z,3.40
2018-11-28T12:21:34.457Z,3.30
2018-11-28T12:22:34.358Z,3.30
2018-11-28T12:23:34.372Z,3.90
2018-11-28T12:24:34.400Z,3.50
2018-11-28T12:25:34.290Z,2.70
2018-11-28T12:26:34.287Z,3.00
2018-11-28T12:27:34.225Z,2.80
2018-11-28T12:28:34.196Z,2.80
2018-11-28T12:29:34.386Z,2.80
2018-11-28T12:30:34.181Z,2.90
2018-11-28T12:31:34.206Z,3.00
2018-11-28T12:32:34.139Z,3.30
2018-11-28T12:33:34.099Z,3.60
2018-11-28T12:34:34.201Z,3.00
2018-11-28T12:35:34.071Z,3.50
2018-11-28T12:36:34.005Z,2.80
2018-11-28T12:37:34.041Z,3.20
2018-11-28T12:38:33.977Z,4.30
2018-11-28T12:39:34.109Z,3.40
2018-11-28T12:40:33.995Z,3.60
2018-11-28T12:41:33.911Z,3.00
2018-11-28T12:42:34.042Z,4.00
2018-11-28T12:43:33.832Z,2.90
2018-11-28T12:44:37.159Z,2.90
2018-11-28T12:45:33.767Z,3.00
2018-11-28T12:46:33.741Z,2.70
2018-11-28T12:47:33.766Z,2.90
2018-11-28T12:48:33.708Z,2.70
2018-11-28T12:49:33.711Z,3.00
2018-11-28T12:50:33.732Z,3.10
2018-11-28T12:51:33.622Z,2.70
2018-11-28T12:52:33.583Z,3.30
2018-11-28T12:53:33.544Z,3.60
2018-11-28T12:54:33.527Z,2.80
2018-11-28T12:55:33.499Z,3.10
2018-11-28T12:56:33.583Z,3.10
2018-11-28T12:57:33.470Z,3.70
2018-11-28T12:58:33.433Z,2.50
2018-11-28T12:59:33.404Z,3.60
2018-11-28T13:00:33.380Z,3.30
2018-11-28T13:01:33.348Z,2.80
2018-11-28T13:02:33.474Z,3.10
2018-11-28T13:03:33.313Z,2.50
2018-11-28T13:04:33.285Z,3.30
2018-11-28T13:05:33.384Z,2.50
2018-11-28T13:06:33.238Z,3.20
2018-11-28T13:07:33.242Z,2.80
2018-11-28T13:08:33.158Z,2.90
2018-11-28T13:09:33.148Z,2.30
2018-11-28T13:10:33.113Z,2.80
2018-11-28T13:11:33.137Z,3.30
2018-11-28T13:12:33.114Z,3.00
2018-11-28T13:13:33.085Z,2.70
2018-11-28T13:14:33.040Z,2.60
2018-11-28T13:15:32.971Z,3.00
2018-11-28T13:16:33.009Z,2.30
2018-11-28T13:17:33.128Z,2.80
2018-11-28T13:18:32.912Z,2.90
2018-11-28T13:19:32.894Z,2.60
2018-11-28T13:20:32.937Z,3.40
2018-11-28T13:21:32.856Z,3.20